Terminal Aerodrome Forecast
Issued by NWS

Home | Current Version | Previous Version | Text Only | Print | Product List | Glossary On
Versions: 1 2 3 4 5 6 7 8 9 10 11 12 13 14 15 16 17 18 19 20 21 22 23 24 25 26 27 28
000
FTUS44 KFWD 222300
TAFGKY
TAF
KGKY 222333Z 2300/2324 VRB10KT 3SM RA VCTS BKN020 OVC070CB
      TEMPO 2300/2301 2SM +TSRA OVC008CB
     FM230200 13011KT 5SM RA BR VCTS SCT010 OVC080CB
     FM230400 20007KT 6SM BR SCT007 OVC090
     FM230900 22008KT 4SM BR BKN011
     FM231300 22013KT P6SM SCT250
     FM231700 26015G25KT P6SM FEW250
     FM232000 29021G31KT P6SM SKC=

USA.gov is the U.S. government's official web portal to all federal, state and local government web resources and services.